Fort Peck, Montana
Current Conditions -  °F | °C
As of 6:53 AM on Tuesday 21 Oct 2014 (Local Time) from KGGW Reporting Station
Clear Clear  
Wind Chill: 38°   Ceiling: Unl
Heat Index: 45°   Visibility: 10mi
Dew Point: 38°   Wind: 16mph
Humidity: 76%   Direction: 100°E
Pressure: 29.67"   Gusts: NA
Location:  48.01°N, 106.45°W
Report Text: KGGW 211253Z AUTO 10014KT 10SM CLR 07/03 A2967 RMK AO2 SLP052 T00720033
Loading
Personal Weather Stations






























Interactive Weather Map
Tropical Storm Tracking
New forecast layout! Learn more

10-Day Weather Forecast

Advertisements
Track Severe Weather on mobile